MSC Anya — D5GD2 — position and weather

sailwx.info

Track history (hours):
 
Tides and Currents Weather Stations Pressure Air Temp Water Temp Dewpoint Dewpoint Depression Visibility Wind Speed Wind Dir Waves Ship Positions

MSC Anya

Last reported at 2018-Feb-17 19:49 UTC. Time now 2018-Feb-22 09:14 UTC.
Position N 22°20' E 114°07'.

Length 294 m; draft 10 m.

Type: Cargo ship. MMSI: 636016424.

Date/timePositionNaut miles runAvg speedWind from/ knotsBaromVisibWave heightAir tempDewpointWater temp
2018-Feb-17 19:49N 22°20' E 114°07'175 3.5
2018-Feb-15 18:18N 22°58' E 117°12'310.1
2018-Feb-15 18:00N 22°60' E 117°15'510.2
2018-Feb-15 17:30N 23°02' E 117°19'11 9.9
2018-Feb-15 16:22N 23°10' E 117°28'410.3
2018-Feb-15 15:59N 23°13' E 117°31'6 9.9
2018-Feb-15 15:22N 23°17' E 117°36'4 9.9
2018-Feb-15 15:00N 23°20' E 117°39'510.2
2018-Feb-15 14:30N 23°24' E 117°42'5 9.9
2018-Feb-15 14:00N 23°27' E 117°46'5 9.9
2018-Feb-15 13:30N 23°31' E 117°50'5 9.8
2018-Feb-15 13:00N 23°35' E 117°53'5 9.7
2018-Feb-15 12:30N 23°38' E 117°57'6 9.9
2018-Feb-15 11:57N 23°42' E 118°01'410.2
2018-Feb-15 11:30N 23°45' E 118°04'510.3
2018-Feb-15 11:00N 23°49' E 118°08'5 9.4
2018-Feb-15 10:30N 23°53' E 118°12'5 9.3
2018-Feb-15 10:00N 23°56' E 118°15'5 9.5
2018-Feb-15 09:30N 23°59' E 118°19'5 9.3
2018-Feb-15 09:00N 24°03' E 118°21'510.0
2018-Feb-15 08:30N 24°08' E 118°21'713.5
2018-Feb-15 08:00N 24°14' E 118°17'713.8
2018-Feb-15 07:31N 24°19' E 118°12'612.5
2018-Feb-15 07:01N 24°23' E 118°07'611.2
2018-Feb-15 06:30N 24°28' E 118°03'3 6.5
2018-Feb-15 06:00N 24°30' E 118°05'0 0.2
2018-Feb-15 05:29N 24°31' E 118°05'0 0.0
2018-Feb-15 04:59N 24°31' E 118°05'0 0.0
2018-Feb-15 04:29N 24°31' E 118°05'0 0.0
2018-Feb-15 03:59N 24°31' E 118°05'0 0.0
2018-Feb-15 03:29N 24°31' E 118°05'0 0.0
2018-Feb-15 02:59N 24°31' E 118°05'0 0.0
2018-Feb-15 02:29N 24°31' E 118°05'0 0.0
2018-Feb-15 01:59N 24°31' E 118°05'0 0.0
2018-Feb-15 01:29N 24°31' E 118°05'0 0.0
2018-Feb-15 00:59N 24°31' E 118°05'0 0.0
2018-Feb-15 00:29N 24°31' E 118°05'0 0.0
2018-Feb-14 23:59N 24°31' E 118°05'0 0.0
2018-Feb-14 23:29N 24°31' E 118°05'0 0.0
2018-Feb-14 22:59N 24°31' E 118°05'0 0.0
2018-Feb-14 22:29N 24°31' E 118°05'0 0.0
2018-Feb-14 22:00N 24°31' E 118°05'0 0.0
2018-Feb-14 21:30N 24°31' E 118°05'0 0.0
2018-Feb-14 21:00N 24°31' E 118°05'0 0.0
2018-Feb-14 20:30N 24°31' E 118°05'0 0.0
2018-Feb-14 20:00N 24°31' E 118°05'0 0.2
2018-Feb-14 19:30N 24°30' E 118°05'3 6.2
2018-Feb-14 19:00N 24°28' E 118°03'5 9.4
2018-Feb-14 18:30N 24°24' E 118°06'5 9.4
2018-Feb-14 18:00N 24°21' E 118°10'510.7
2018-Feb-14 17:30N 24°17' E 118°14'5 9.4
2018-Feb-14 17:00N 24°13' E 118°17'5 9.7
2018-Feb-14 16:31N 24°09' E 118°21'918.0
2018-Feb-14 16:00N 24°03' E 118°28'918.0
2018-Feb-14 15:31N 23°57' E 118°35'917.2
2018-Feb-14 15:01N 23°49' E 118°39'917.8
2018-Feb-14 14:30N 23°41' E 118°42'1018.5
2018-Feb-14 13:58N 23°31' E 118°45'5919.1
2018-Feb-14 10:52N 22°49' E 119°30'719.1
2018-Feb-14 10:30N 22°46' E 119°37'919.2
2018-Feb-14 10:00N 22°41' E 119°46'1019.4
2018-Feb-14 09:30N 22°36' E 119°54'918.5
2018-Feb-14 09:00N 22°33' E 120°04'917.9
2018-Feb-14 08:30N 22°33' E 120°14'510.8
2018-Feb-14 08:00N 22°33' E 120°19'0 0.8
2018-Feb-14 07:30N 22°34' E 120°19'0 0.0
2018-Feb-14 07:00N 22°34' E 120°19'0 0.0
2018-Feb-14 06:30N 22°34' E 120°19'0 0.0
2018-Feb-14 06:00N 22°34' E 120°19'0 0.0
2018-Feb-14 05:24N 22°34' E 120°19'0 0.0
2018-Feb-14 05:00N 22°34' E 120°19'0 0.0
2018-Feb-14 04:30N 22°34' E 120°19'0 0.0
2018-Feb-14 04:00N 22°34' E 120°19'0 0.0
2018-Feb-14 03:30N 22°34' E 120°19'0 0.0
2018-Feb-14 03:00N 22°34' E 120°19'0 0.0
2018-Feb-14 02:30N 22°34' E 120°19'0 0.0
2018-Feb-14 02:00N 22°34' E 120°19'0 0.0
2018-Feb-14 01:30N 22°34' E 120°19'0 0.0
2018-Feb-14 00:59N 22°34' E 120°19'0 0.0
2018-Feb-14 00:27N 22°34' E 120°19'0 0.0
2018-Feb-13 23:59N 22°34' E 120°19'0 0.0
2018-Feb-13 23:29N 22°34' E 120°19'2 4.6
2018-Feb-13 23:00N 22°33' E 120°17'4 7.2
2018-Feb-13 22:31N 22°32' E 120°13'611.3
2018-Feb-13 22:00N 22°30' E 120°07'4 8.3
2018-Feb-13 21:30N 22°26' E 120°05'612.6
2018-Feb-13 21:00N 22°20' E 120°02'713.4
2018-Feb-13 20:28N 22°14' E 120°04'813.3
2018-Feb-13 19:50N 22°06' E 120°07'513.3
2018-Feb-13 19:29N 22°01' E 120°08'713.4
2018-Feb-13 18:59N 21°55' E 120°11'  
Track history (hours):
 
Tides and Currents Weather Stations Pressure Air Temp Water Temp Dewpoint Dewpoint Depression Visibility Wind Speed Wind Dir Waves Ship Positions

MSC Anya

Last reported at 2018-Feb-17 19:49 UTC. Time now 2018-Feb-22 09:14 UTC.
Position N 22°20' E 114°07'.

Length 294 m; draft 10 m.

Type: Cargo ship. MMSI: 636016424.

Date/timePositionNaut miles runAvg speedWind from/ knotsBaromVisibWave heightAir tempDewpointWater temp
2018-Feb-17 19:49N 22°20' E 114°07'175 3.5
2018-Feb-15 18:18N 22°58' E 117°12'310.1
2018-Feb-15 18:00N 22°60' E 117°15'510.2
2018-Feb-15 17:30N 23°02' E 117°19'11 9.9
2018-Feb-15 16:22N 23°10' E 117°28'410.3
2018-Feb-15 15:59N 23°13' E 117°31'6 9.9
2018-Feb-15 15:22N 23°17' E 117°36'4 9.9
2018-Feb-15 15:00N 23°20' E 117°39'510.2
2018-Feb-15 14:30N 23°24' E 117°42'5 9.9
2018-Feb-15 14:00N 23°27' E 117°46'5 9.9
2018-Feb-15 13:30N 23°31' E 117°50'5 9.8
2018-Feb-15 13:00N 23°35' E 117°53'5 9.7
2018-Feb-15 12:30N 23°38' E 117°57'6 9.9
2018-Feb-15 11:57N 23°42' E 118°01'410.2
2018-Feb-15 11:30N 23°45' E 118°04'510.3
2018-Feb-15 11:00N 23°49' E 118°08'5 9.4
2018-Feb-15 10:30N 23°53' E 118°12'5 9.3
2018-Feb-15 10:00N 23°56' E 118°15'5 9.5
2018-Feb-15 09:30N 23°59' E 118°19'5 9.3
2018-Feb-15 09:00N 24°03' E 118°21'510.0
2018-Feb-15 08:30N 24°08' E 118°21'713.5
2018-Feb-15 08:00N 24°14' E 118°17'713.8
2018-Feb-15 07:31N 24°19' E 118°12'612.5
2018-Feb-15 07:01N 24°23' E 118°07'611.2
2018-Feb-15 06:30N 24°28' E 118°03'3 6.5
2018-Feb-15 06:00N 24°30' E 118°05'0 0.2
2018-Feb-15 05:29N 24°31' E 118°05'0 0.0
2018-Feb-15 04:59N 24°31' E 118°05'0 0.0
2018-Feb-15 04:29N 24°31' E 118°05'0 0.0
2018-Feb-15 03:59N 24°31' E 118°05'0 0.0
2018-Feb-15 03:29N 24°31' E 118°05'0 0.0
2018-Feb-15 02:59N 24°31' E 118°05'0 0.0
2018-Feb-15 02:29N 24°31' E 118°05'0 0.0
2018-Feb-15 01:59N 24°31' E 118°05'0 0.0
2018-Feb-15 01:29N 24°31' E 118°05'0 0.0
2018-Feb-15 00:59N 24°31' E 118°05'0 0.0
2018-Feb-15 00:29N 24°31' E 118°05'0 0.0
2018-Feb-14 23:59N 24°31' E 118°05'0 0.0
2018-Feb-14 23:29N 24°31' E 118°05'0 0.0
2018-Feb-14 22:59N 24°31' E 118°05'0 0.0
2018-Feb-14 22:29N 24°31' E 118°05'0 0.0
2018-Feb-14 22:00N 24°31' E 118°05'0 0.0
2018-Feb-14 21:30N 24°31' E 118°05'0 0.0
2018-Feb-14 21:00N 24°31' E 118°05'0 0.0
2018-Feb-14 20:30N 24°31' E 118°05'0 0.0
2018-Feb-14 20:00N 24°31' E 118°05'0 0.2
2018-Feb-14 19:30N 24°30' E 118°05'3 6.2
2018-Feb-14 19:00N 24°28' E 118°03'5 9.4
2018-Feb-14 18:30N 24°24' E 118°06'5 9.4
2018-Feb-14 18:00N 24°21' E 118°10'510.7
2018-Feb-14 17:30N 24°17' E 118°14'5 9.4
2018-Feb-14 17:00N 24°13' E 118°17'5 9.7
2018-Feb-14 16:31N 24°09' E 118°21'918.0
2018-Feb-14 16:00N 24°03' E 118°28'918.0
2018-Feb-14 15:31N 23°57' E 118°35'917.2
2018-Feb-14 15:01N 23°49' E 118°39'917.8
2018-Feb-14 14:30N 23°41' E 118°42'1018.5
2018-Feb-14 13:58N 23°31' E 118°45'5919.1
2018-Feb-14 10:52N 22°49' E 119°30'719.1
2018-Feb-14 10:30N 22°46' E 119°37'919.2
2018-Feb-14 10:00N 22°41' E 119°46'1019.4
2018-Feb-14 09:30N 22°36' E 119°54'918.5
2018-Feb-14 09:00N 22°33' E 120°04'917.9
2018-Feb-14 08:30N 22°33' E 120°14'510.8
2018-Feb-14 08:00N 22°33' E 120°19'0 0.8
2018-Feb-14 07:30N 22°34' E 120°19'0 0.0
2018-Feb-14 07:00N 22°34' E 120°19'0 0.0
2018-Feb-14 06:30N 22°34' E 120°19'0 0.0
2018-Feb-14 06:00N 22°34' E 120°19'0 0.0
2018-Feb-14 05:24N 22°34' E 120°19'0 0.0
2018-Feb-14 05:00N 22°34' E 120°19'0 0.0
2018-Feb-14 04:30N 22°34' E 120°19'0 0.0
2018-Feb-14 04:00N 22°34' E 120°19'0 0.0
2018-Feb-14 03:30N 22°34' E 120°19'0 0.0
2018-Feb-14 03:00N 22°34' E 120°19'0 0.0
2018-Feb-14 02:30N 22°34' E 120°19'0 0.0
2018-Feb-14 02:00N 22°34' E 120°19'0 0.0
2018-Feb-14 01:30N 22°34' E 120°19'0 0.0
2018-Feb-14 00:59N 22°34' E 120°19'0 0.0
2018-Feb-14 00:27N 22°34' E 120°19'0 0.0
2018-Feb-13 23:59N 22°34' E 120°19'0 0.0
2018-Feb-13 23:29N 22°34' E 120°19'2 4.6
2018-Feb-13 23:00N 22°33' E 120°17'4 7.2
2018-Feb-13 22:31N 22°32' E 120°13'611.3
2018-Feb-13 22:00N 22°30' E 120°07'4 8.3
2018-Feb-13 21:30N 22°26' E 120°05'612.6
2018-Feb-13 21:00N 22°20' E 120°02'713.4
2018-Feb-13 20:28N 22°14' E 120°04'813.3
2018-Feb-13 19:50N 22°06' E 120°07'513.3
2018-Feb-13 19:29N 22°01' E 120°08'713.4
2018-Feb-13 18:59N 21°55' E 120°11'  

Dump ship's entire track history